Time;durP1;ratioP1;P1;durP2;ratioP2;P2;SDS_P1;SDS_P2;PMS_P1;PMS_P2;Temp;Humidity;BMP_temperature;BMP_pressure;BME280_temperature;BME280_humidity;BME280_pressure;Samples;Min_cycle;Max_cycle;Signal;HPM_P1;HPM_P2
2023/03/06 00:02:17;;;;;;;71.00;26.30;;;;;;;-3.43;100.00;100207.34;107023;1285;59065;-79
2023/03/06 00:04:43;;;;;;;72.80;29.40;;;;;;;-3.38;100.00;100208.88;106989;1284;72227;-79
2023/03/06 00:07:08;;;;;;;67.50;27.20;;;;;;;-3.33;100.00;100208.67;106990;1284;59444;-80
2023/03/06 00:09:34;;;;;;;64.90;26.90;;;;;;;-3.29;100.00;100208.02;106677;1284;59037;-79
2023/03/06 00:11:59;;;;;;;75.90;27.90;;;;;;;-3.25;100.00;100207.73;106997;1284;59079;-80
2023/03/06 00:14:25;;;;;;;77.50;30.30;;;;;;;-3.20;100.00;100209.81;106672;1284;59173;-79
2023/03/06 00:16:57;;;;;;;80.00;30.30;;;;;;;-3.14;100.00;100207.22;106932;1285;62463;-80
2023/03/06 00:19:23;;;;;;;83.20;30.00;;;;;;;-3.09;100.00;100206.67;106960;1285;61192;-80
2023/03/06 00:21:49;;;;;;;79.70;29.80;;;;;;;-3.05;100.00;100204.38;107007;1284;59399;-79
2023/03/06 00:24:14;;;;;;;88.20;32.30;;;;;;;-3.00;100.00;100203.70;106945;1285;58997;-79
2023/03/06 00:26:40;;;;;;;76.30;29.10;;;;;;;-2.94;100.00;100202.59;106989;1284;59052;-79
2023/03/06 00:29:09;;;;;;;75.70;30.20;;;;;;;-2.90;100.00;100203.70;106961;1285;59092;-79
2023/03/06 00:31:34;;;;;;;85.40;31.90;;;;;;;-2.87;100.00;100208.58;106986;1285;59738;-79
2023/03/06 00:34:01;;;;;;;89.70;32.20;;;;;;;-2.84;100.00;100200.71;106978;1285;59021;-79
2023/03/06 00:36:26;;;;;;;85.90;33.00;;;;;;;-2.82;100.00;100209.23;106981;1284;59054;-79
2023/03/06 00:38:52;;;;;;;92.50;33.60;;;;;;;-2.81;100.00;100204.73;106935;1284;59068;-80
2023/03/06 00:41:17;;;;;;;90.70;33.90;;;;;;;-2.80;100.00;100207.94;107050;1284;59107;-79
2023/03/06 00:43:43;;;;;;;83.80;32.10;;;;;;;-2.79;100.00;100209.05;106965;1285;75831;-79
2023/03/06 00:46:08;;;;;;;84.30;31.80;;;;;;;-2.78;100.00;100210.36;106982;1284;59254;-80
2023/03/06 00:48:34;;;;;;;86.60;32.90;;;;;;;-2.81;100.00;100201.39;106607;1284;59151;-79
2023/03/06 00:51:00;;;;;;;85.20;32.10;;;;;;;-2.83;100.00;100200.73;106943;1285;59023;-79
2023/03/06 00:53:25;;;;;;;84.10;31.30;;;;;;;-2.85;100.00;100199.92;106939;1285;59031;-79
2023/03/06 00:55:51;;;;;;;77.60;28.30;;;;;;;-2.88;100.00;100197.58;106725;1286;59557;-79
2023/03/06 00:58:17;;;;;;;76.70;29.40;;;;;;;-2.92;100.00;100197.06;106641;1285;59352;-79
2023/03/06 01:00:43;;;;;;;88.30;31.90;;;;;;;-2.99;100.00;100199.93;106947;1285;59051;-79
2023/03/06 01:03:09;;;;;;;77.20;28.40;;;;;;;-3.08;100.00;100199.30;106729;1284;59140;-79
2023/03/06 01:05:36;;;;;;;73.00;27.10;;;;;;;-3.16;100.00;100203.09;106967;1285;59112;-79
2023/03/06 01:08:03;;;;;;;64.40;24.70;;;;;;;-3.25;100.00;100200.73;106976;1284;58979;-79
2023/03/06 01:10:29;;;;;;;63.30;25.30;;;;;;;-3.34;100.00;100199.83;106965;1285;59099;-79
2023/03/06 01:12:54;;;;;;;61.20;25.00;;;;;;;-3.40;100.00;100202.89;106973;1284;58979;-79
2023/03/06 01:15:21;;;;;;;68.00;25.20;;;;;;;-3.52;100.00;100202.33;106667;1286;59128;-79
2023/03/06 01:17:46;;;;;;;63.30;24.10;;;;;;;-3.62;100.00;100204.30;106670;1284;59246;-79
2023/03/06 01:20:14;;;;;;;52.40;21.80;;;;;;;-3.72;100.00;100204.98;106997;1285;59171;-79
2023/03/06 01:22:40;;;;;;;60.70;24.70;;;;;;;-3.79;100.00;100202.42;106907;1284;61838;-79
2023/03/06 01:25:06;;;;;;;58.30;22.10;;;;;;;-3.88;100.00;100206.12;106984;1284;59080;-79
2023/03/06 01:27:31;;;;;;;64.30;24.10;;;;;;;-3.96;100.00;100208.73;106951;1284;59041;-79
2023/03/06 01:29:57;;;;;;;53.60;22.20;;;;;;;-4.00;100.00;100207.65;106945;1284;59812;-79
2023/03/06 01:32:22;;;;;;;55.70;21.70;;;;;;;-4.11;100.00;100206.90;106975;1284;59047;-79
2023/03/06 01:34:48;;;;;;;61.80;25.10;;;;;;;-4.20;100.00;100200.27;106944;1284;60128;-79
2023/03/06 01:37:13;;;;;;;65.70;24.50;;;;;;;-4.27;100.00;100199.72;106971;1284;59074;-79
2023/03/06 01:39:39;;;;;;;61.00;24.20;;;;;;;-4.35;100.00;100194.44;106595;1284;59101;-79
2023/03/06 01:42:05;;;;;;;67.30;25.90;;;;;;;-4.43;100.00;100195.26;106946;1284;59044;-78
2023/03/06 01:44:30;;;;;;;62.60;25.10;;;;;;;-4.50;100.00;100193.33;107004;1284;58927;-79
2023/03/06 01:46:56;;;;;;;63.50;26.00;;;;;;;-4.57;100.00;100193.88;106950;1284;75540;-79
2023/03/06 01:49:29;;;;;;;67.50;26.80;;;;;;;-4.65;100.00;100195.30;106974;1284;59060;-79
2023/03/06 01:52:01;;;;;;;70.60;27.10;;;;;;;-4.71;100.00;100193.92;106932;1284;73376;-79
2023/03/06 01:54:29;;;;;;;72.90;27.30;;;;;;;-4.76;100.00;100192.29;106925;1284;63147;-78
2023/03/06 01:57:04;;;;;;;71.80;26.40;;;;;;;-4.82;100.00;100186.33;106636;1284;61084;-79
2023/03/06 01:59:34;;;;;;;79.10;28.40;;;;;;;-4.86;100.00;100186.54;106801;1285;75297;-79
2023/03/06 02:02:01;;;;;;;63.60;26.20;;;;;;;-4.88;100.00;100188.88;106935;1284;74358;-78
2023/03/06 02:04:28;;;;;;;58.00;23.80;;;;;;;-4.92;100.00;100190.95;106951;1284;73160;-79
2023/03/06 02:06:55;;;;;;;67.50;27.70;;;;;;;-4.99;100.00;100191.83;106640;1286;61751;-79
2023/03/06 02:09:21;;;;;;;64.90;25.40;;;;;;;-5.04;100.00;100193.09;106927;1285;59053;-78
2023/03/06 02:11:50;;;;;;;57.00;24.60;;;;;;;-5.10;100.00;100188.55;106913;1285;60386;-79
2023/03/06 02:14:16;;;;;;;59.80;23.90;;;;;;;-5.13;100.00;100192.33;106927;1284;74455;-78
2023/03/06 02:16:42;;;;;;;56.20;22.20;;;;;;;-5.17;100.00;100190.73;106964;1284;59395;-78
2023/03/06 02:19:39;;;;;;;49.80;22.30;;;;;;;-5.20;100.00;100188.47;106940;1284;58966;-78
2023/03/06 02:22:04;;;;;;;50.70;22.60;;;;;;;-5.24;100.00;100197.05;106933;1284;60230;-79
2023/03/06 02:24:45;;;;;;;53.00;23.50;;;;;;;-5.26;100.00;100196.42;106972;1284;59500;-78
2023/03/06 02:27:13;;;;;;;59.70;26.90;;;;;;;-5.27;100.00;100196.35;106998;1284;74365;-78
2023/03/06 02:29:39;;;;;;;72.00;29.10;;;;;;;-5.29;100.00;100197.02;106934;1284;72452;-78
2023/03/06 02:32:05;;;;;;;83.70;33.00;;;;;;;-5.29;100.00;100197.77;106978;1284;61473;-79
2023/03/06 02:34:37;;;;;;;73.70;30.50;;;;;;;-5.30;100.00;100197.42;106905;1285;59054;-78
2023/03/06 02:37:07;;;;;;;62.40;26.40;;;;;;;-5.34;100.00;100197.45;106947;1284;75844;-78
2023/03/06 02:39:39;;;;;;;79.70;31.30;;;;;;;-5.37;100.00;100198.66;106636;1287;74089;-78
2023/03/06 02:42:04;;;;;;;76.80;32.70;;;;;;;-5.37;100.00;100201.16;106568;1287;73425;-78
2023/03/06 02:44:33;;;;;;;91.20;37.00;;;;;;;-5.41;100.00;100200.71;106086;1287;236382;-78
2023/03/06 02:46:58;;;;;;;107.30;40.20;;;;;;;-5.44;100.00;100203.10;106641;1287;60134;-78
2023/03/06 02:49:24;;;;;;;89.60;37.40;;;;;;;-5.44;100.00;100204.10;106611;1287;59132;-77
2023/03/06 02:51:49;;;;;;;93.20;36.50;;;;;;;-5.49;100.00;100202.23;106623;1287;59132;-78
2023/03/06 02:54:17;;;;;;;95.90;37.30;;;;;;;-5.54;100.00;100202.77;106578;1288;59176;-78
2023/03/06 02:56:43;;;;;;;84.40;35.40;;;;;;;-5.59;100.00;100205.61;106574;1288;58976;-77
2023/03/06 02:59:09;;;;;;;99.50;38.30;;;;;;;-5.63;100.00;100209.31;106454;1287;59237;-77
2023/03/06 03:01:34;;;;;;;100.60;40.30;;;;;;;-5.62;100.00;100211.19;106606;1288;60456;-78
2023/03/06 03:04:00;;;;;;;99.20;41.20;;;;;;;-5.62;100.00;100211.52;106625;1287;59095;-77
2023/03/06 03:06:25;;;;;;;101.60;41.40;;;;;;;-5.68;100.00;100207.98;106534;1289;62735;-78
2023/03/06 03:08:51;;;;;;;110.80;44.90;;;;;;;-5.72;100.00;100206.64;106404;1287;59142;-77
2023/03/06 03:11:16;;;;;;;115.10;44.90;;;;;;;-5.73;100.00;100204.63;106857;1284;59186;-77
2023/03/06 03:13:42;;;;;;;121.00;47.60;;;;;;;-5.75;100.00;100203.60;106965;1284;59211;-77
2023/03/06 03:16:14;;;;;;;123.60;50.30;;;;;;;-5.77;100.00;100204.83;106964;1284;59050;-78
2023/03/06 03:18:43;;;;;;;138.40;53.20;;;;;;;-5.79;100.00;100205.31;107009;1285;59081;-77
2023/03/06 03:21:11;;;;;;;124.10;47.00;;;;;;;-5.81;100.00;100204.40;106968;1284;74477;-77
2023/03/06 03:23:36;;;;;;;124.80;48.60;;;;;;;-5.83;100.00;100204.06;106931;1285;73175;-78
2023/03/06 03:26:19;;;;;;;135.40;51.50;;;;;;;-5.84;100.00;100202.98;106966;1284;59059;-76
2023/03/06 03:28:44;;;;;;;134.40;52.50;;;;;;;-5.91;100.00;100202.48;106977;1284;61775;-77
2023/03/06 03:31:11;;;;;;;140.80;57.60;;;;;;;-5.95;100.00;100205.74;106960;1284;59135;-77
2023/03/06 03:33:37;;;;;;;132.60;50.70;;;;;;;-5.98;100.00;100203.78;106939;1284;59058;-77
2023/03/06 03:36:04;;;;;;;138.80;56.10;;;;;;;-5.97;100.00;100206.96;106943;1284;59926;-77
2023/03/06 03:38:31;;;;;;;154.90;61.40;;;;;;;-5.91;100.00;100205.72;106636;1286;59158;-77
2023/03/06 03:40:56;;;;;;;142.40;58.40;;;;;;;-5.86;100.00;100202.27;106957;1284;59087;-77
2023/03/06 03:43:22;;;;;;;133.00;51.90;;;;;;;-5.87;100.00;100202.74;106948;1284;59008;-78
2023/03/06 03:45:47;;;;;;;146.60;59.80;;;;;;;-5.90;100.00;100198.61;106833;1284;59178;-77
2023/03/06 03:48:13;;;;;;;139.10;56.90;;;;;;;-5.89;100.00;100197.11;106963;1284;59087;-76
2023/03/06 03:50:38;;;;;;;132.20;56.50;;;;;;;-5.89;100.00;100197.63;106989;1284;58884;-77
2023/03/06 03:53:04;;;;;;;143.60;60.40;;;;;;;-5.94;100.00;100195.72;106634;1284;59502;-77
2023/03/06 03:55:30;;;;;;;143.10;58.60;;;;;;;-5.92;100.00;100193.25;107033;1284;59006;-77
2023/03/06 03:57:55;;;;;;;131.80;55.60;;;;;;;-5.92;100.00;100191.25;106951;1284;59075;-77
2023/03/06 04:00:21;;;;;;;134.00;56.00;;;;;;;-5.93;100.00;100191.26;106647;1285;59023;-77
2023/03/06 04:02:47;;;;;;;145.40;57.50;;;;;;;-5.96;100.00;100191.13;107017;1285;59104;-77
2023/03/06 04:05:14;;;;;;;132.60;54.10;;;;;;;-5.97;100.00;100188.64;106943;1285;75188;-76
2023/03/06 04:07:41;;;;;;;131.70;54.60;;;;;;;-5.97;100.00;100190.58;106928;1284;74097;-77
2023/03/06 04:10:08;;;;;;;123.30;49.40;;;;;;;-5.98;100.00;100190.50;106960;1284;72378;-76
2023/03/06 04:12:35;;;;;;;127.90;54.30;;;;;;;-6.00;100.00;100188.34;106630;1286;62762;-76
2023/03/06 04:15:01;;;;;;;122.20;52.40;;;;;;;-6.01;100.00;100186.92;106942;1284;60990;-77
2023/03/06 04:17:26;;;;;;;116.70;49.00;;;;;;;-6.04;100.00;100186.80;106982;1285;59072;-77
2023/03/06 04:19:52;;;;;;;127.00;54.00;;;;;;;-6.08;100.00;100192.59;106975;1284;59037;-77
2023/03/06 04:22:17;;;;;;;119.50;51.70;;;;;;;-6.06;100.00;100194.86;106945;1284;59070;-77
2023/03/06 04:24:43;;;;;;;100.80;45.90;;;;;;;-6.05;100.00;100199.60;107003;1284;59082;-76
2023/03/06 04:27:08;;;;;;;103.60;45.50;;;;;;;-6.05;100.00;100202.04;106948;1284;74489;-77
2023/03/06 04:29:34;;;;;;;99.40;44.60;;;;;;;-6.00;100.00;100207.30;106978;1284;59087;-77
2023/03/06 04:31:59;;;;;;;105.30;43.60;;;;;;;-5.95;100.00;100207.83;106950;1284;59032;-77
2023/03/06 04:34:25;;;;;;;93.40;41.00;;;;;;;-5.89;100.00;100211.59;106840;1284;59036;-76
2023/03/06 04:36:50;;;;;;;91.60;41.60;;;;;;;-5.79;100.00;100216.95;106994;1285;59108;-77
2023/03/06 04:39:16;;;;;;;98.00;42.60;;;;;;;-5.68;100.00;100218.04;106963;1285;59075;-77
2023/03/06 04:41:41;;;;;;;91.30;39.10;;;;;;;-5.58;100.00;100223.45;106932;1284;59048;-76
2023/03/06 04:44:07;;;;;;;90.20;39.40;;;;;;;-5.45;100.00;100221.06;106990;1284;59014;-77
2023/03/06 04:46:33;;;;;;;94.20;42.00;;;;;;;-5.33;100.00;100222.91;106972;1284;59023;-76
2023/03/06 04:48:59;;;;;;;94.30;42.60;;;;;;;-5.21;100.00;100223.04;106948;1284;59088;-77
2023/03/06 04:51:25;;;;;;;84.90;39.60;;;;;;;-5.09;100.00;100223.22;106973;1284;59045;-77
2023/03/06 04:53:51;;;;;;;87.50;39.50;;;;;;;-4.93;100.00;100219.93;106899;1284;62658;-77
2023/03/06 04:56:16;;;;;;;79.10;36.20;;;;;;;-4.70;100.00;100219.98;106943;1284;59062;-78
2023/03/06 04:58:43;;;;;;;84.20;37.10;;;;;;;-4.42;100.00;100221.73;106925;1284;59025;-77
2023/03/06 05:01:08;;;;;;;85.50;37.50;;;;;;;-4.26;100.00;100221.67;106957;1284;59131;-78
2023/03/06 05:03:34;;;;;;;86.50;32.50;;;;;;;-3.83;100.00;100221.96;106924;1285;59597;-77
2023/03/06 05:05:59;;;;;;;73.80;28.10;;;;;;;-2.53;100.00;100218.21;106992;1284;59125;-78
2023/03/06 05:08:25;;;;;;;62.60;26.70;;;;;;;-1.06;100.00;100213.07;106940;1285;75190;-79
2023/03/06 05:10:59;;;;;;;62.00;25.60;;;;;;;0.24;100.00;100214.35;106975;1285;58985;-79
2023/03/06 05:13:25;;;;;;;54.60;23.40;;;;;;;1.52;100.00;100216.16;106906;1285;72442;-79
2023/03/06 05:15:50;;;;;;;52.50;22.60;;;;;;;2.75;100.00;100213.39;106945;1285;59043;-79
2023/03/06 05:18:17;;;;;;;51.80;21.80;;;;;;;3.81;100.00;100209.30;106646;1286;59129;-79
2023/03/06 05:20:42;;;;;;;47.80;21.30;;;;;;;4.67;100.00;100210.55;106970;1284;60436;-79
2023/03/06 05:23:08;;;;;;;46.40;20.70;;;;;;;5.66;100.00;100209.73;106827;1284;59478;-80
2023/03/06 05:25:33;;;;;;;41.60;19.50;;;;;;;6.62;100.00;100208.52;106828;1284;59047;-79
2023/03/06 05:28:02;;;;;;;40.50;18.50;;;;;;;7.48;96.85;100206.86;106650;1285;59425;-79
2023/03/06 05:30:27;;;;;;;35.60;17.50;;;;;;;8.13;90.50;100209.13;106949;1284;75358;-80
2023/03/06 05:32:52;;;;;;;32.20;16.00;;;;;;;8.64;86.59;100203.27;106991;1284;59045;-80
2023/03/06 05:35:21;;;;;;;28.60;15.40;;;;;;;9.36;79.56;100209.55;106646;1284;59216;-80
2023/03/06 05:37:46;;;;;;;28.50;14.90;;;;;;;10.49;77.73;100212.85;106961;1284;59164;-78
2023/03/06 05:40:12;;;;;;;29.70;16.10;;;;;;;11.83;71.77;100211.70;106619;1287;59221;-78
2023/03/06 05:42:38;;;;;;;28.30;14.20;;;;;;;12.59;62.80;100210.33;106234;1288;59635;-78
2023/03/06 05:45:04;;;;;;;26.00;11.30;;;;;;;11.94;56.42;100214.91;106585;1287;59445;-79
2023/03/06 05:47:30;;;;;;;24.90;11.10;;;;;;;10.49;54.86;100228.63;106585;1287;59024;-76
2023/03/06 05:49:56;;;;;;;29.90;12.60;;;;;;;9.64;55.74;100236.84;106587;1288;59045;-79
2023/03/06 05:52:22;;;;;;;24.30;11.30;;;;;;;8.90;56.95;100230.81;106655;1287;59146;-80
2023/03/06 05:54:52;;;;;;;30.60;13.20;;;;;;;8.22;58.71;100228.27;106587;1288;59566;-77
2023/03/06 05:57:20;;;;;;;33.40;12.20;;;;;;;7.43;59.22;100237.08;106572;1288;72651;-80
2023/03/06 05:59:46;;;;;;;38.30;13.40;;;;;;;6.84;61.46;100238.33;106381;1288;59318;-79
2023/03/06 06:02:11;;;;;;;31.80;12.40;;;;;;;6.45;62.77;100246.68;106581;1287;59132;-80
2023/03/06 06:04:37;;;;;;;30.30;11.60;;;;;;;6.04;64.16;100247.70;106625;1288;59070;-79
2023/03/06 06:07:04;;;;;;;29.00;11.20;;;;;;;5.62;66.27;100256.34;106591;1287;59074;-80
2023/03/06 06:09:30;;;;;;;27.30;10.40;;;;;;;5.31;68.69;100258.80;106306;1287;59120;-79
2023/03/06 06:12:01;;;;;;;20.90;8.70;;;;;;;5.06;71.15;100268.24;106401;1285;59173;-80
2023/03/06 06:14:27;;;;;;;21.20;9.70;;;;;;;4.77;73.25;100271.98;106838;1285;61239;-79
2023/03/06 06:16:53;;;;;;;19.40;8.70;;;;;;;4.50;76.14;100273.95;106787;1285;59462;-79
2023/03/06 06:19:20;;;;;;;20.20;8.50;;;;;;;4.29;79.93;100274.86;106870;1285;59052;-80
2023/03/06 06:25:07;;;;;;;24.50;9.40;;;;;;;3.91;87.69;100281.13;106852;1285;59273;-80
2023/03/06 06:27:33;;;;;;;24.00;9.80;;;;;;;3.89;86.45;100282.08;106850;1285;59173;-80
2023/03/06 06:29:59;;;;;;;25.70;9.60;;;;;;;3.80;88.07;100290.20;106510;1286;59103;-80
2023/03/06 06:32:24;;;;;;;24.50;10.00;;;;;;;3.64;89.20;100298.05;106849;1285;59155;-79
2023/03/06 06:34:50;;;;;;;23.50;10.70;;;;;;;3.48;93.36;100300.50;106657;1284;59111;-80
2023/03/06 06:37:15;;;;;;;20.50;9.40;;;;;;;3.46;97.64;100303.36;106847;1285;58822;-81
2023/03/06 06:39:41;;;;;;;21.40;10.50;;;;;;;3.47;99.08;100302.08;106507;1288;59268;-80
2023/03/06 06:42:08;;;;;;;26.30;10.30;;;;;;;3.53;99.87;100299.30;106488;1288;59392;-79
2023/03/06 06:44:35;;;;;;;20.40;8.70;;;;;;;3.58;100.00;100297.70;106499;1288;59472;-80
2023/03/06 06:47:03;;;;;;;24.30;9.30;;;;;;;3.68;100.00;100294.52;106225;1288;59168;-80
2023/03/06 06:49:29;;;;;;;22.20;9.00;;;;;;;3.81;100.00;100297.41;106574;1287;60768;-80
2023/03/06 06:51:55;;;;;;;20.00;10.10;;;;;;;3.96;100.00;100293.58;106618;1288;59089;-80
2023/03/06 06:54:21;;;;;;;22.20;9.70;;;;;;;4.18;99.57;100286.46;106222;1290;59100;-80
2023/03/06 06:56:46;;;;;;;20.80;9.80;;;;;;;4.35;98.68;100283.11;106258;1291;59091;-79
2023/03/06 06:59:12;;;;;;;27.80;10.30;;;;;;;4.48;99.04;100288.69;106183;1290;59236;-80
2023/03/06 07:01:38;;;;;;;21.50;9.80;;;;;;;4.64;96.93;100285.00;106291;1291;59072;-80
2023/03/06 07:04:04;;;;;;;23.50;9.60;;;;;;;4.87;95.94;100288.84;106225;1291;73287;-80
2023/03/06 07:06:29;;;;;;;19.80;8.60;;;;;;;5.11;95.79;100290.26;106266;1291;59550;-80
2023/03/06 07:08:55;;;;;;;23.20;8.50;;;;;;;5.37;93.12;100291.65;106154;1290;58954;-80
2023/03/06 07:11:21;;;;;;;23.10;9.00;;;;;;;5.57;91.16;100290.19;106076;1290;59136;-80
2023/03/06 07:13:47;;;;;;;20.90;8.40;;;;;;;5.68;88.64;100293.98;106016;1292;59227;-80
2023/03/06 07:16:16;;;;;;;18.20;8.20;;;;;;;5.78;87.78;100295.02;106252;1290;59206;-80
2023/03/06 07:18:42;;;;;;;16.70;7.20;;;;;;;5.87;86.01;100294.23;106597;1287;59152;-80
2023/03/06 07:21:08;;;;;;;18.00;7.20;;;;;;;5.94;84.46;100297.93;106623;1288;59244;-78
2023/03/06 07:23:34;;;;;;;19.10;8.40;;;;;;;6.06;85.69;100295.89;106461;1287;59171;-77
2023/03/06 07:26:00;;;;;;;17.10;8.40;;;;;;;6.27;84.14;100292.98;106586;1285;59327;-80
2023/03/06 07:28:26;;;;;;;24.50;8.70;;;;;;;6.54;82.44;100290.79;106967;1285;59139;-80
2023/03/06 07:30:53;;;;;;;19.70;8.20;;;;;;;6.77;78.90;100291.25;106980;1284;59157;-80
2023/03/06 07:33:19;;;;;;;26.20;8.50;;;;;;;6.92;77.28;100288.10;106970;1284;60164;-79
2023/03/06 07:35:44;;;;;;;24.20;8.30;;;;;;;7.17;76.66;100289.58;107003;1285;58962;-79
2023/03/06 07:38:10;;;;;;;25.50;9.30;;;;;;;7.39;74.56;100287.29;106657;1285;59154;-79
2023/03/06 07:40:37;;;;;;;25.40;9.40;;;;;;;7.69;73.05;100290.16;106568;1286;59960;-80
2023/03/06 07:43:03;;;;;;;26.30;9.20;;;;;;;8.02;71.00;100289.98;106843;1286;59245;-80
2023/03/06 07:45:33;;;;;;;20.20;7.70;;;;;;;8.39;69.11;100285.74;106597;1286;59035;-80
2023/03/06 07:47:59;;;;;;;21.80;7.80;;;;;;;8.97;66.79;100285.69;106752;1286;75404;-81
2023/03/06 07:50:25;;;;;;;16.90;7.00;;;;;;;9.91;62.57;100280.19;106930;1285;59015;-81
2023/03/06 07:52:51;;;;;;;20.60;6.70;;;;;;;10.66;60.26;100270.44;106829;1285;59236;-81
2023/03/06 07:55:17;;;;;;;13.70;6.10;;;;;;;11.55;55.80;100271.45;106720;1286;59008;-81
2023/03/06 07:57:43;;;;;;;14.70;5.40;;;;;;;12.33;52.81;100275.31;106911;1285;59147;-81
2023/03/06 08:00:14;;;;;;;12.60;5.40;;;;;;;12.91;50.60;100271.93;106911;1285;59183;-80
2023/03/06 08:02:41;;;;;;;15.10;5.20;;;;;;;13.42;49.24;100275.65;106889;1285;74156;-80
2023/03/06 08:05:11;;;;;;;12.50;5.50;;;;;;;13.96;45.65;100280.46;106733;1286;73421;-81
2023/03/06 08:07:37;;;;;;;13.10;5.40;;;;;;;14.32;44.58;100283.80;106689;1285;60049;-82
2023/03/06 08:10:03;;;;;;;11.80;4.80;;;;;;;15.13;43.01;100281.16;106634;1285;59060;-83
2023/03/06 08:12:29;;;;;;;12.20;5.30;;;;;;;15.65;40.97;100273.88;106721;1286;59170;-83
2023/03/06 08:14:55;;;;;;;15.50;5.70;;;;;;;15.80;38.99;100274.83;106889;1285;59237;-83
2023/03/06 08:17:20;;;;;;;14.30;6.10;;;;;;;15.81;38.13;100284.55;106704;1285;59054;-83
2023/03/06 08:19:46;;;;;;;12.30;5.00;;;;;;;15.62;38.38;100285.37;106864;1285;59077;-83
2023/03/06 08:22:12;;;;;;;18.70;5.40;;;;;;;15.62;38.09;100295.27;106864;1286;59138;-83
2023/03/06 08:24:38;;;;;;;14.10;4.90;;;;;;;15.21;35.94;100302.96;106905;1286;74484;-83
2023/03/06 08:27:04;;;;;;;13.10;5.40;;;;;;;14.67;36.15;100305.48;106834;1286;59793;-83
2023/03/06 08:29:29;;;;;;;12.70;6.10;;;;;;;14.16;36.04;100307.90;106856;1284;59086;-83
2023/03/06 08:31:55;;;;;;;15.30;5.60;;;;;;;13.69;36.11;100317.77;106797;1286;59083;-83
2023/03/06 08:34:23;;;;;;;15.50;6.10;;;;;;;13.01;36.44;100321.36;106690;1285;59372;-83
2023/03/06 08:36:50;;;;;;;15.20;6.40;;;;;;;12.61;36.75;100328.13;106800;1286;59136;-83
2023/03/06 08:39:16;;;;;;;14.10;6.10;;;;;;;12.22;37.22;100324.92;106800;1285;59042;-82
2023/03/06 08:41:42;;;;;;;20.80;7.10;;;;;;;11.72;37.88;100329.55;106989;1283;59115;-82
2023/03/06 08:44:07;;;;;;;23.50;7.80;;;;;;;11.32;38.78;100332.30;107035;1283;59145;-82
2023/03/06 08:46:34;;;;;;;18.20;6.90;;;;;;;10.99;39.02;100335.17;107144;1283;59377;-82
2023/03/06 08:49:00;;;;;;;18.80;6.90;;;;;;;10.62;39.39;100333.28;107074;1283;73192;-82
2023/03/06 08:51:27;;;;;;;20.00;7.00;;;;;;;10.07;40.07;100334.64;106674;1288;59041;-81
2023/03/06 08:53:54;;;;;;;19.50;6.00;;;;;;;9.73;40.68;100329.99;106718;1286;61275;-81
2023/03/06 08:56:28;;;;;;;14.80;4.70;;;;;;;9.52;41.04;100322.61;106700;1286;59057;-81
2023/03/06 08:58:55;;;;;;;15.60;5.00;;;;;;;9.34;41.62;100322.86;106743;1286;74260;-81
2023/03/06 09:01:27;;;;;;;11.10;4.30;;;;;;;9.20;41.79;100320.71;106730;1286;72310;-81
2023/03/06 09:03:55;;;;;;;13.30;4.20;;;;;;;9.14;41.58;100322.23;106673;1286;60214;-81
2023/03/06 09:06:22;;;;;;;14.90;4.10;;;;;;;9.02;41.37;100325.95;106732;1286;58987;-80
2023/03/06 09:08:50;;;;;;;12.60;4.60;;;;;;;8.84;41.55;100324.13;106576;1286;73640;-80
2023/03/06 09:11:17;;;;;;;9.90;3.60;;;;;;;8.73;41.89;100326.86;106765;1286;74203;-82
2023/03/06 09:13:43;;;;;;;9.40;4.10;;;;;;;8.58;41.83;100327.38;106667;1286;59074;-82
2023/03/06 09:16:10;;;;;;;13.40;4.30;;;;;;;8.35;41.82;100332.90;106734;1286;59164;-82
2023/03/06 09:18:36;;;;;;;20.50;4.50;;;;;;;8.18;42.07;100327.80;106721;1286;59029;-81
2023/03/06 09:21:03;;;;;;;11.40;4.50;;;;;;;8.03;42.45;100330.20;106735;1286;59148;-82
2023/03/06 09:23:29;;;;;;;10.80;4.50;;;;;;;7.98;42.75;100328.78;107013;1283;59010;-81
2023/03/06 09:25:57;;;;;;;16.00;4.50;;;;;;;8.07;43.10;100324.02;106785;1283;59079;-81
2023/03/06 09:28:24;;;;;;;13.80;5.10;;;;;;;8.02;43.19;100318.70;106939;1283;59036;-83
2023/03/06 09:30:50;;;;;;;15.70;4.80;;;;;;;8.00;43.48;100317.05;106881;1283;59151;-82
2023/03/06 09:33:18;;;;;;;15.80;4.20;;;;;;;8.07;43.81;100317.30;107098;1283;59097;-81
2023/03/06 09:35:55;;;;;;;14.40;5.30;;;;;;;8.21;44.06;100315.33;107066;1283;73120;-82
2023/03/06 09:38:23;;;;;;;11.30;4.70;;;;;;;8.45;44.63;100313.36;107043;1283;72451;-82
2023/03/06 09:41:00;;;;;;;15.90;5.30;;;;;;;8.80;44.03;100314.46;106967;1283;59186;-83
2023/03/06 09:43:34;;;;;;;16.80;4.80;;;;;;;8.82;43.15;100316.48;107047;1283;60954;-81
2023/03/06 09:46:06;;;;;;;15.00;4.90;;;;;;;8.87;44.13;100319.25;107082;1286;74371;-82
2023/03/06 09:48:53;;;;;;;15.10;5.50;;;;;;;9.06;43.65;100319.05;107094;1283;72798;-82
2023/03/06 09:51:26;;;;;;;13.50;5.00;;;;;;;9.08;43.33;100320.73;106788;1285;73676;-82
2023/03/06 09:54:12;;;;;;;13.70;5.50;;;;;;;9.07;43.14;100323.63;107035;1283;59324;-82
2023/03/06 09:56:43;;;;;;;11.70;5.20;;;;;;;9.17;43.49;100323.05;107041;1283;58929;-83
2023/03/06 09:59:24;;;;;;;18.00;5.70;;;;;;;9.28;43.16;100326.91;107060;1283;75458;-82
2023/03/06 10:02:01;;;;;;;13.00;5.20;;;;;;;9.42;43.59;100329.70;107089;1283;74496;-82
2023/03/06 10:04:31;;;;;;;13.10;4.90;;;;;;;9.59;42.73;100325.35;107016;1283;73307;-83
2023/03/06 10:07:03;;;;;;;13.90;5.40;;;;;;;9.69;43.02;100316.30;107012;1283;60397;-82
2023/03/06 10:09:41;;;;;;;27.20;6.00;;;;;;;9.83;42.90;100314.92;107052;1283;61058;-82
2023/03/06 10:12:24;;;;;;;20.80;6.10;;;;;;;10.03;42.10;100319.27;107026;1283;75446;-81
2023/03/06 10:14:52;;;;;;;18.80;6.20;;;;;;;10.13;41.50;100316.77;107060;1283;74381;-81
2023/03/06 10:17:21;;;;;;;15.10;5.20;;;;;;;10.11;40.71;100317.10;107057;1283;72449;-82
2023/03/06 10:19:46;;;;;;;14.70;5.30;;;;;;;9.99;41.13;100319.52;107042;1283;59264;-82
2023/03/06 10:22:29;;;;;;;13.60;4.30;;;;;;;9.97;40.37;100318.34;107086;1283;59074;-82
2023/03/06 10:24:58;;;;;;;11.50;4.50;;;;;;;9.56;39.02;100319.18;107074;1283;74465;-82
2023/03/06 10:27:49;;;;;;;18.40;4.10;;;;;;;9.13;40.06;100319.58;106746;1283;73714;-82
2023/03/06 10:30:20;;;;;;;10.20;3.00;;;;;;;9.11;40.22;100322.20;107036;1283;73273;-82
2023/03/06 10:33:23;;;;;;;10.70;2.60;;;;;;;8.95;39.95;100313.91;107035;1283;59403;-82
2023/03/06 10:35:52;;;;;;;9.50;2.40;;;;;;;8.67;39.76;100314.82;106221;1291;60173;-82
2023/03/06 10:38:26;;;;;;;9.10;2.90;;;;;;;8.46;39.89;100309.25;106214;1291;74455;-82
2023/03/06 10:41:10;;;;;;;13.60;4.10;;;;;;;8.30;40.68;100306.02;106094;1291;72247;-82
2023/03/06 10:43:38;;;;;;;9.90;3.00;;;;;;;8.32;41.10;100309.33;105964;1292;71677;-83
2023/03/06 10:46:06;;;;;;;10.50;2.60;;;;;;;8.24;40.90;100308.05;106232;1291;60509;-83
2023/03/06 10:48:35;;;;;;;9.90;3.10;;;;;;;8.02;40.76;100310.02;106254;1291;60086;-84
2023/03/06 10:51:21;;;;;;;8.20;2.70;;;;;;;7.85;41.31;100308.66;106247;1291;74487;-84
2023/03/06 10:53:49;;;;;;;8.50;3.30;;;;;;;7.61;41.24;100308.77;106235;1291;74097;-84
2023/03/06 10:56:25;;;;;;;7.90;3.10;;;;;;;7.37;41.62;100314.33;106267;1291;73333;-83
2023/03/06 10:59:11;;;;;;;9.20;3.50;;;;;;;7.16;42.47;100310.48;106201;1291;59413;-83
2023/03/06 11:01:42;;;;;;;15.40;3.90;;;;;;;7.04;43.13;100304.71;106236;1292;60968;-83
2023/03/06 11:04:15;;;;;;;7.50;3.60;;;;;;;6.97;43.50;100310.39;106242;1292;75065;-83
2023/03/06 11:06:41;;;;;;;;;;;;;;;6.86;43.45;100304.94;106292;1291;74131;-82
2023/03/06 11:09:24;;;;;;;13.60;4.10;;;;;;;6.83;44.11;100302.42;106218;1292;59103;-82
2023/03/06 11:11:50;;;;;;;10.90;3.90;;;;;;;6.91;43.90;100306.73;106372;1283;59334;-83